Time;durP1;ratioP1;P1;durP2;ratioP2;P2;SDS_P1;SDS_P2;PMS_P1;PMS_P2;Temp;Humidity;BMP_temperature;BMP_pressure;BME280_temperature;BME280_humidity;BME280_pressure;Samples;Min_cycle;Max_cycle;Signal;HPM_P1;HPM_P2
2023/08/25 00:02:20;;;;;;;1.97;1.80;;;25.20;71.30;;;;;;5014718;28;20198;-45
2023/08/25 00:04:46;;;;;;;3.00;2.33;;;25.20;70.70;;;;;;5014036;28;20599;-47
2023/08/25 00:07:11;;;;;;;6.17;2.67;;;25.30;69.90;;;;;;5014823;28;20425;-46
2023/08/25 00:09:37;;;;;;;3.30;2.67;;;25.60;68.70;;;;;;5015069;28;20197;-47
2023/08/25 00:12:03;;;;;;;2.40;2.07;;;25.70;68.00;;;;;;5014566;28;20646;-45
2023/08/25 00:14:28;;;;;;;2.90;2.60;;;25.70;67.80;;;;;;5015026;28;20721;-46
2023/08/25 00:16:54;;;;;;;5.50;2.57;;;25.60;67.40;;;;;;5022191;28;20428;-47
2023/08/25 00:19:20;;;;;;;3.83;2.57;;;25.80;67.30;;;;;;5014992;28;20689;-47
2023/08/25 00:21:45;;;;;;;3.70;2.70;;;25.80;67.90;;;;;;5014334;28;20244;-49
2023/08/25 00:24:11;;;;;;;3.23;2.20;;;25.90;67.00;;;;;;5015105;28;20707;-45
2023/08/25 00:26:37;;;;;;;5.00;2.77;;;26.10;66.70;;;;;;5014005;28;20194;-44
2023/08/25 00:29:03;;;;;;;2.77;2.57;;;26.20;65.90;;;;;;5014845;28;20197;-47
2023/08/25 00:31:28;;;;;;;5.13;2.43;;;26.20;64.70;;;;;;5012648;28;20210;-45
2023/08/25 00:33:54;;;;;;;4.80;3.00;;;26.10;64.90;;;;;;5012677;28;20421;-45
2023/08/25 00:36:20;;;;;;;2.63;2.40;;;26.20;64.80;;;;;;5001250;28;20555;-46
2023/08/25 00:38:45;;;;;;;3.33;2.40;;;26.40;64.80;;;;;;5014424;28;20222;-45
2023/08/25 00:41:11;;;;;;;3.10;2.50;;;26.30;63.40;;;;;;5013936;28;20248;-47
2023/08/25 00:43:38;;;;;;;2.40;2.20;;;26.40;63.70;;;;;;5014616;28;20689;-45
2023/08/25 00:46:03;;;;;;;2.63;2.43;;;26.60;63.80;;;;;;5013920;28;20232;-46
2023/08/25 00:48:29;;;;;;;2.60;2.40;;;26.50;64.00;;;;;;5014108;28;20433;-46
2023/08/25 00:50:55;;;;;;;3.67;2.67;;;26.60;63.50;;;;;;5014115;28;20571;-45
2023/08/25 00:53:22;;;;;;;2.67;2.47;;;26.50;62.50;;;;;;5013522;28;20516;-45
2023/08/25 00:55:48;;;;;;;2.57;2.40;;;26.60;62.30;;;;;;5014216;28;20799;-47
2023/08/25 00:58:16;;;;;;;3.03;2.83;;;26.70;61.80;;;;;;5012621;28;20926;-47
2023/08/25 01:00:44;;;;;;;2.90;2.60;;;26.50;61.80;;;;;;5014135;28;20908;-45
2023/08/25 01:03:10;;;;;;;4.33;2.97;;;26.70;62.10;;;;;;5013727;28;20986;-45
2023/08/25 01:05:35;;;;;;;2.83;2.63;;;26.80;62.30;;;;;;5014211;28;20455;-47
2023/08/25 01:08:01;;;;;;;2.70;2.50;;;26.90;61.60;;;;;;5013484;28;20421;-45
2023/08/25 01:10:42;;;;;;;4.47;2.37;;;27.00;61.20;;;;;;5014022;28;20189;-47
2023/08/25 01:13:16;;;;;;;2.37;2.17;;;27.00;61.00;;;;;;5013446;28;20198;-45
2023/08/25 01:15:46;;;;;;;4.07;3.07;;;26.90;60.80;;;;;;5014553;28;20579;-46
2023/08/25 01:18:17;;;;;;;2.60;2.40;;;26.90;60.80;;;;;;5000151;28;20461;-45
2023/08/25 01:20:46;;;;;;;2.40;2.27;;;26.90;60.60;;;;;;5013812;28;20998;-45
2023/08/25 01:23:18;;;;;;;2.33;2.20;;;27.00;60.30;;;;;;5011791;28;20428;-45
2023/08/25 01:25:46;;;;;;;2.70;2.50;;;27.00;60.00;;;;;;5013674;28;20432;-45
2023/08/25 01:28:12;;;;;;;2.70;2.13;;;27.00;60.90;;;;;;5013126;28;20436;-45
2023/08/25 01:30:37;;;;;;;2.73;2.47;;;27.00;60.30;;;;;;5013227;28;20425;-46
2023/08/25 01:33:04;;;;;;;3.70;3.07;;;27.00;59.80;;;;;;5000917;28;20252;-46
2023/08/25 01:35:35;;;;;;;5.13;2.40;;;27.00;59.10;;;;;;5013104;28;20281;-46
2023/08/25 01:38:29;;;;;;;2.40;2.20;;;27.10;59.10;;;;;;5012990;28;20850;-46
2023/08/25 01:41:19;;;;;;;2.40;2.20;;;27.10;59.60;;;;;;5011850;28;20521;-47
2023/08/25 01:43:48;;;;;;;3.33;3.03;;;27.10;59.30;;;;;;5013459;28;20437;-45
2023/08/25 01:46:16;;;;;;;3.13;2.73;;;27.10;59.60;;;;;;5012496;28;20475;-45
2023/08/25 01:48:43;;;;;;;2.90;2.60;;;26.90;59.90;;;;;;5012974;28;20464;-45
2023/08/25 01:51:10;;;;;;;2.40;2.20;;;26.70;60.40;;;;;;5011646;28;20532;-46
2023/08/25 01:53:36;;;;;;;4.93;2.83;;;26.60;60.80;;;;;;5013342;28;20429;-48
2023/08/25 01:56:02;;;;;;;3.63;2.63;;;26.60;61.50;;;;;;5012558;28;21050;-49
2023/08/25 01:58:28;;;;;;;2.43;2.20;;;26.50;62.20;;;;;;5012986;28;20193;-46
2023/08/25 02:00:53;;;;;;;2.83;2.17;;;26.40;62.30;;;;;;5013328;28;20186;-47
2023/08/25 02:03:19;;;;;;;3.30;2.67;;;26.50;62.40;;;;;;5012741;28;20429;-45
2023/08/25 02:05:45;;;;;;;3.43;2.73;;;26.60;61.80;;;;;;5012957;28;20267;-45
2023/08/25 02:08:10;;;;;;;3.80;2.70;;;26.80;61.30;;;;;;5012756;28;20277;-45
2023/08/25 02:10:36;;;;;;;3.10;2.30;;;26.70;61.10;;;;;;5013055;28;20217;-45
2023/08/25 02:13:01;;;;;;;4.13;2.57;;;26.70;61.10;;;;;;5012648;28;20630;-45
2023/08/25 02:15:27;;;;;;;2.90;2.70;;;26.70;60.80;;;;;;5011337;28;20566;-46
2023/08/25 02:17:52;;;;;;;3.57;2.60;;;26.70;61.40;;;;;;5018237;28;20252;-45
2023/08/25 02:20:19;;;;;;;3.90;2.90;;;26.50;62.20;;;;;;5013050;28;20369;-45
2023/08/25 02:22:45;;;;;;;2.53;2.33;;;26.40;61.10;;;;;;5012328;28;20198;-45
2023/08/25 02:25:10;;;;;;;3.43;2.90;;;26.10;61.10;;;;;;5013154;28;20452;-46
2023/08/25 02:27:36;;;;;;;5.63;2.97;;;25.80;62.00;;;;;;5012226;28;20265;-45
2023/08/25 02:30:02;;;;;;;3.57;3.23;;;25.70;63.90;;;;;;5012819;28;20212;-47
2023/08/25 02:32:28;;;;;;;2.60;2.37;;;25.80;63.90;;;;;;5012047;28;20233;-45
2023/08/25 02:34:54;;;;;;;3.63;2.50;;;26.00;62.90;;;;;;5009094;28;20461;-45
2023/08/25 02:37:20;;;;;;;3.73;3.30;;;26.00;62.90;;;;;;5000915;28;20197;-46
2023/08/25 02:39:45;;;;;;;5.63;2.63;;;25.80;64.10;;;;;;5012542;28;20237;-45
2023/08/25 02:42:12;;;;;;;3.10;2.80;;;26.00;63.70;;;;;;5010565;28;20190;-45
2023/08/25 02:44:38;;;;;;;2.77;2.57;;;26.30;62.90;;;;;;5012503;28;20213;-45
2023/08/25 02:47:04;;;;;;;4.27;2.50;;;26.40;62.50;;;;;;5012089;28;20503;-46
2023/08/25 02:49:29;;;;;;;3.00;2.63;;;26.50;62.70;;;;;;5012613;28;20707;-45
2023/08/25 02:51:56;;;;;;;4.83;2.40;;;26.30;63.70;;;;;;5012023;28;20189;-47
2023/08/25 02:54:22;;;;;;;3.83;2.60;;;26.30;64.60;;;;;;5012196;28;20202;-47
2023/08/25 02:56:48;;;;;;;3.00;2.80;;;26.10;65.30;;;;;;5011552;28;20425;-45
2023/08/25 02:59:14;;;;;;;3.50;2.80;;;26.10;65.80;;;;;;5013757;28;20492;-45
2023/08/25 03:01:39;;;;;;;4.10;2.50;;;26.10;65.80;;;;;;5016079;28;20194;-46
2023/08/25 03:04:05;;;;;;;3.07;2.77;;;26.00;66.10;;;;;;5016270;28;20197;-45
2023/08/25 03:06:30;;;;;;;2.50;2.23;;;25.70;68.50;;;;;;5015630;28;20194;-46
2023/08/25 03:08:56;;;;;;;3.43;2.27;;;25.60;68.90;;;;;;5014637;28;20200;-46
2023/08/25 03:11:22;;;;;;;6.70;2.67;;;25.40;69.90;;;;;;5015592;28;20189;-46
2023/08/25 03:13:47;;;;;;;2.83;2.40;;;25.30;70.50;;;;;;5016319;28;20198;-47
2023/08/25 03:16:13;;;;;;;3.03;2.73;;;25.40;70.30;;;;;;5016520;28;20190;-45
2023/08/25 03:18:40;;;;;;;3.87;2.90;;;25.50;69.60;;;;;;5016346;28;20228;-46
2023/08/25 03:21:05;;;;;;;4.20;2.53;;;25.60;68.90;;;;;;5015370;28;20194;-45
2023/08/25 03:23:31;;;;;;;2.73;2.53;;;25.40;69.20;;;;;;5016135;28;20432;-48
2023/08/25 03:25:56;;;;;;;4.57;3.23;;;25.20;70.30;;;;;;5015672;28;20210;-47
2023/08/25 03:28:22;;;;;;;3.03;2.53;;;25.00;71.60;;;;;;5015726;28;20186;-45
2023/08/25 03:30:51;;;;;;;3.17;2.87;;;24.70;73.70;;;;;;5009828;28;20211;-46
2023/08/25 03:33:17;;;;;;;3.47;2.57;;;24.70;74.10;;;;;;5012715;28;20217;-45
2023/08/25 03:35:43;;;;;;;5.77;2.90;;;24.60;74.90;;;;;;5014325;28;20425;-46
2023/08/25 03:38:08;;;;;;;4.83;2.67;;;24.50;74.00;;;;;;5015420;28;20649;-46
2023/08/25 03:40:34;;;;;;;3.40;2.83;;;24.80;72.70;;;;;;5015579;28;20229;-46
2023/08/25 03:42:59;;;;;;;2.60;2.40;;;24.90;71.80;;;;;;5015165;28;20201;-45
2023/08/25 03:45:25;;;;;;;5.03;3.23;;;25.20;70.80;;;;;;5015825;28;20247;-45
2023/08/25 03:47:52;;;;;;;3.63;3.07;;;25.20;70.00;;;;;;5015040;28;20313;-45
2023/08/25 03:50:17;;;;;;;5.50;3.00;;;25.30;69.30;;;;;;5015567;28;20197;-45
2023/08/25 03:52:43;;;;;;;4.00;3.00;;;25.20;69.30;;;;;;5015127;28;20436;-46
2023/08/25 03:55:09;;;;;;;7.37;3.10;;;24.90;70.60;;;;;;5015557;28;20194;-47
2023/08/25 03:57:34;;;;;;;4.80;2.90;;;24.70;72.30;;;;;;5014952;28;20225;-47
2023/08/25 04:00:00;;;;;;;3.67;3.10;;;24.70;72.40;;;;;;5015400;28;20233;-45
2023/08/25 04:02:25;;;;;;;10.20;3.27;;;24.80;71.70;;;;;;5013220;28;20202;-45
2023/08/25 04:04:51;;;;;;;2.97;2.67;;;24.80;71.00;;;;;;5015670;28;20218;-45
2023/08/25 04:07:17;;;;;;;3.30;3.00;;;24.70;71.50;;;;;;5014698;28;20642;-47
2023/08/25 04:09:42;;;;;;;6.33;3.00;;;24.60;71.90;;;;;;5014862;28;20201;-44
2023/08/25 04:12:08;;;;;;;3.83;3.30;;;24.50;72.50;;;;;;5014537;28;20273;-45
2023/08/25 04:14:34;;;;;;;5.37;2.90;;;24.30;73.20;;;;;;5015516;28;20206;-46
2023/08/25 04:17:00;;;;;;;3.87;2.90;;;24.50;73.00;;;;;;5021729;28;20277;-46
2023/08/25 04:19:25;;;;;;;6.00;2.83;;;24.40;72.40;;;;;;5015096;28;21034;-45
2023/08/25 04:21:51;;;;;;;4.43;2.87;;;24.50;72.70;;;;;;5014312;28;20201;-45
2023/08/25 04:24:17;;;;;;;6.60;2.93;;;24.40;72.40;;;;;;5015103;28;20669;-45
2023/08/25 04:26:43;;;;;;;3.13;2.70;;;24.60;71.80;;;;;;5014452;28;20201;-45
2023/08/25 04:29:09;;;;;;;3.00;2.73;;;24.70;71.30;;;;;;5013591;28;20424;-46
2023/08/25 04:31:35;;;;;;;6.03;3.50;;;24.50;71.80;;;;;;5001667;28;20203;-45
2023/08/25 04:34:01;;;;;;;3.57;2.90;;;24.60;72.40;;;;;;5014645;28;20452;-47
2023/08/25 04:36:26;;;;;;;3.30;2.90;;;24.50;72.90;;;;;;5013560;28;20433;-46
2023/08/25 04:38:52;;;;;;;2.83;2.63;;;24.40;73.80;;;;;;5014845;28;20214;-45
2023/08/25 04:41:18;;;;;;;3.73;2.87;;;24.20;74.50;;;;;;5013905;28;20202;-47
2023/08/25 04:43:44;;;;;;;29.57;4.17;;;24.30;73.40;;;;;;5015158;28;20650;-47
2023/08/25 04:46:10;;;;;;;8.40;3.10;;;24.30;73.30;;;;;;5013837;28;20429;-45
2023/08/25 04:48:36;;;;;;;6.50;3.13;;;24.40;73.60;;;;;;5014740;28;20186;-47
2023/08/25 04:51:02;;;;;;;3.57;3.27;;;24.30;74.10;;;;;;5013439;28;20470;-48
2023/08/25 04:53:27;;;;;;;9.20;3.20;;;24.20;74.70;;;;;;5014306;28;20440;-45
2023/08/25 04:55:53;;;;;;;3.67;3.37;;;24.10;75.00;;;;;;5012952;28;20182;-45
2023/08/25 04:58:19;;;;;;;4.10;3.80;;;24.10;75.10;;;;;;5008368;28;20193;-46
2023/08/25 05:00:48;;;;;;;3.03;2.83;;;24.10;74.70;;;;;;5006213;28;20253;-46
2023/08/25 05:03:14;;;;;;;3.53;3.23;;;24.20;75.00;;;;;;5013458;28;20668;-45
2023/08/25 05:05:40;;;;;;;3.60;3.13;;;24.30;74.40;;;;;;5014495;28;20429;-45
2023/08/25 05:08:05;;;;;;;5.50;3.27;;;24.30;74.40;;;;;;5013273;28;20661;-47
2023/08/25 05:10:31;;;;;;;3.10;2.80;;;24.40;73.90;;;;;;5013808;28;20198;-47
2023/08/25 05:12:56;;;;;;;5.03;3.10;;;24.50;73.00;;;;;;5013374;28;20684;-45
2023/08/25 05:15:22;;;;;;;3.90;2.80;;;24.30;74.30;;;;;;5014192;28;20197;-46
2023/08/25 05:17:48;;;;;;;4.00;3.57;;;24.30;74.80;;;;;;5014148;28;20194;-48
2023/08/25 05:20:18;;;;;;;6.90;3.60;;;24.30;74.80;;;;;;5013128;28;20226;-48
2023/08/25 05:22:43;;;;;;;6.40;3.27;;;24.40;74.90;;;;;;5008480;28;20563;-45
2023/08/25 05:25:09;;;;;;;4.33;3.90;;;24.50;74.40;;;;;;5013703;28;20429;-46
2023/08/25 05:27:34;;;;;;;9.03;3.70;;;24.50;74.30;;;;;;5012945;28;20554;-47
2023/08/25 05:30:00;;;;;;;3.40;3.10;;;24.60;73.80;;;;;;5013898;28;20263;-47
2023/08/25 05:32:25;;;;;;;4.77;3.20;;;24.60;73.80;;;;;;5012718;28;20194;-46
2023/08/25 05:34:51;;;;;;;3.53;3.23;;;24.60;74.00;;;;;;5013869;28;20205;-46
2023/08/25 05:37:16;;;;;;;3.57;3.27;;;24.70;74.00;;;;;;5012684;28;20201;-47
2023/08/25 05:39:42;;;;;;;3.30;3.00;;;24.90;73.70;;;;;;5013645;28;20221;-45
2023/08/25 05:42:08;;;;;;;3.87;3.57;;;25.10;73.00;;;;;;5012855;28;20194;-46
2023/08/25 05:44:34;;;;;;;6.53;3.37;;;25.20;72.10;;;;;;5013387;28;20259;-48
2023/08/25 05:46:59;;;;;;;7.47;3.83;;;25.20;71.50;;;;;;5011212;28;20631;-48
2023/08/25 05:49:25;;;;;;;3.80;3.33;;;25.30;71.40;;;;;;5013755;28;20201;-46
2023/08/25 05:51:51;;;;;;;3.60;3.30;;;25.60;70.30;;;;;;5012736;28;20646;-46
2023/08/25 05:54:16;;;;;;;4.70;2.87;;;25.80;69.30;;;;;;5012968;28;20205;-49
2023/08/25 05:56:42;;;;;;;3.83;3.50;;;26.00;68.20;;;;;;5012775;28;20433;-45
2023/08/25 05:59:07;;;;;;;4.40;3.03;;;26.20;67.40;;;;;;5013030;28;20230;-46
2023/08/25 06:01:33;;;;;;;5.27;3.70;;;26.30;67.60;;;;;;5012720;28;20190;-45
2023/08/25 06:03:59;;;;;;;4.13;3.07;;;26.40;67.70;;;;;;5012969;28;20313;-48
2023/08/25 06:06:25;;;;;;;3.47;3.00;;;26.30;68.60;;;;;;5012649;28;20222;-45
2023/08/25 06:08:51;;;;;;;5.00;3.27;;;26.30;68.20;;;;;;5012986;28;20429;-45
2023/08/25 06:11:17;;;;;;;6.10;3.37;;;26.40;67.40;;;;;;5012463;28;20441;-47
2023/08/25 06:13:42;;;;;;;3.83;2.83;;;26.50;67.30;;;;;;5011306;28;20436;-46
2023/08/25 06:16:09;;;;;;;4.47;3.33;;;26.70;66.10;;;;;;5016316;28;20189;-46
2023/08/25 06:18:35;;;;;;;5.77;3.63;;;26.70;66.50;;;;;;5014334;28;20252;-45
2023/08/25 06:21:00;;;;;;;4.13;3.70;;;26.70;66.90;;;;;;5012346;28;20453;-50
2023/08/25 06:23:26;;;;;;;3.47;3.00;;;26.70;66.50;;;;;;5009099;28;20670;-48
2023/08/25 06:25:52;;;;;;;5.50;3.80;;;26.60;66.00;;;;;;5012986;28;20688;-45
2023/08/25 06:28:17;;;;;;;4.20;3.77;;;26.10;66.90;;;;;;5012108;28;20259;-45
2023/08/25 06:30:43;;;;;;;4.53;3.50;;;26.10;67.40;;;;;;5012809;28;20197;-46
2023/08/25 06:33:10;;;;;;;6.50;4.70;;;25.90;68.10;;;;;;5011649;28;20207;-48
2023/08/25 06:35:38;;;;;;;5.90;3.63;;;26.00;68.00;;;;;;5013046;28;20190;-48
2023/08/25 06:38:04;;;;;;;4.63;3.53;;;25.60;68.00;;;;;;5012101;28;20439;-45
2023/08/25 06:40:30;;;;;;;3.70;3.30;;;25.60;69.50;;;;;;5010574;28;20495;-46
2023/08/25 06:42:55;;;;;;;3.50;3.20;;;25.50;69.10;;;;;;5012161;28;20913;-51
2023/08/25 06:45:21;;;;;;;3.77;3.40;;;25.60;68.90;;;;;;5012760;28;20252;-48
2023/08/25 06:47:49;;;;;;;6.47;4.00;;;25.60;68.30;;;;;;5012141;28;20701;-47
2023/08/25 06:50:15;;;;;;;5.43;3.47;;;25.80;68.70;;;;;;5012525;28;20208;-45
2023/08/25 06:52:41;;;;;;;3.27;2.97;;;25.70;69.10;;;;;;5012160;28;20429;-51
2023/08/25 06:55:07;;;;;;;5.40;3.90;;;25.90;68.50;;;;;;5012571;28;20186;-45
2023/08/25 06:57:34;;;;;;;5.30;3.50;;;26.00;69.00;;;;;;5011849;28;20205;-48
2023/08/25 07:00:00;;;;;;;5.50;3.90;;;26.00;67.90;;;;;;5012418;28;20240;-46
2023/08/25 07:02:26;;;;;;;8.33;3.80;;;25.90;68.80;;;;;;5012235;28;20429;-49
2023/08/25 07:04:52;;;;;;;4.83;4.23;;;25.70;70.10;;;;;;5012480;28;20189;-49
2023/08/25 07:07:27;;;;;;;4.43;4.03;;;25.60;71.60;;;;;;5010333;28;20424;-46
2023/08/25 07:09:53;;;;;;;4.07;3.63;;;25.70;71.90;;;;;;5012551;28;20649;-46
2023/08/25 07:12:19;;;;;;;7.60;4.73;;;25.90;72.10;;;;;;5011809;28;20486;-47
2023/08/25 07:14:45;;;;;;;6.97;4.70;;;26.00;70.90;;;;;;5012514;28;20811;-46
2023/08/25 07:17:10;;;;;;;4.87;3.97;;;26.10;70.70;;;;;;5011632;28;20194;-47
2023/08/25 07:19:36;;;;;;;4.23;3.83;;;26.20;70.10;;;;;;5012380;28;20229;-45
2023/08/25 07:22:02;;;;;;;15.50;6.13;;;26.20;70.10;;;;;;5011966;28;20197;-49
2023/08/25 07:24:28;;;;;;;6.53;4.47;;;26.20;70.20;;;;;;5011973;28;20348;-47
2023/08/25 07:26:54;;;;;;;4.93;4.43;;;26.30;70.70;;;;;;5011666;28;20520;-46
2023/08/25 07:29:19;;;;;;;5.40;4.30;;;26.20;71.20;;;;;;5011960;28;20938;-47
2023/08/25 07:31:45;;;;;;;4.90;4.50;;;26.20;71.20;;;;;;5007785;28;20197;-46
2023/08/25 07:34:10;;;;;;;8.80;6.13;;;26.20;71.80;;;;;;5010443;28;20336;-48
2023/08/25 07:36:37;;;;;;;7.17;4.30;;;26.20;72.20;;;;;;5011382;28;20194;-46
2023/08/25 07:39:03;;;;;;;5.50;5.00;;;26.10;72.10;;;;;;5011957;28;20229;-50
2023/08/25 07:41:29;;;;;;;7.97;4.60;;;26.10;72.20;;;;;;5011508;28;20467;-46
2023/08/25 07:43:56;;;;;;;5.43;4.73;;;26.20;72.20;;;;;;5012033;28;20425;-48
2023/08/25 07:46:22;;;;;;;10.73;6.00;;;26.30;72.00;;;;;;5013930;28;20205;-48
2023/08/25 07:48:47;;;;;;;5.73;5.23;;;26.20;72.10;;;;;;5015648;28;20452;-46
2023/08/25 07:51:13;;;;;;;6.37;5.40;;;26.20;72.60;;;;;;5015059;28;20913;-46
2023/08/25 07:53:38;;;;;;;6.40;4.77;;;26.20;72.70;;;;;;5015754;28;20206;-48
2023/08/25 07:56:04;;;;;;;11.43;5.30;;;26.00;73.60;;;;;;5014764;28;20294;-46
2023/08/25 07:58:30;;;;;;;5.87;5.20;;;26.00;73.80;;;;;;5015364;28;20718;-47
2023/08/25 08:00:55;;;;;;;5.70;5.17;;;25.90;74.00;;;;;;5013826;28;20744;-49
2023/08/25 08:03:21;;;;;;;6.83;5.00;;;25.90;74.50;;;;;;5014728;28;20622;-49
2023/08/25 08:05:47;;;;;;;6.80;4.80;;;25.80;75.20;;;;;;5015158;28;20563;-47
2023/08/25 08:08:12;;;;;;;5.50;5.00;;;25.80;75.20;;;;;;5014600;28;20193;-51
2023/08/25 08:10:38;;;;;;;4.20;3.90;;;25.90;74.80;;;;;;5015320;28;20190;-47
2023/08/25 08:13:04;;;;;;;4.23;3.93;;;25.80;73.60;;;;;;5014592;28;20221;-46
2023/08/25 08:15:30;;;;;;;4.90;3.77;;;25.60;73.60;;;;;;5014728;28;20421;-46
2023/08/25 08:17:56;;;;;;;5.23;4.10;;;25.70;73.80;;;;;;5018542;28;20281;-49
2023/08/25 08:20:22;;;;;;;8.00;4.87;;;25.80;73.50;;;;;;5015050;28;20222;-46
2023/08/25 08:22:48;;;;;;;5.47;4.93;;;25.90;73.60;;;;;;5014417;28;20440;-49
2023/08/25 08:25:14;;;;;;;4.30;3.90;;;25.60;74.40;;;;;;5015140;28;20455;-48
2023/08/25 08:27:41;;;;;;;6.03;4.33;;;25.20;77.00;;;;;;5012823;28;20198;-46
2023/08/25 08:30:08;;;;;;;5.83;4.87;;;24.80;79.30;;;;;;5014939;28;20571;-47
2023/08/25 08:32:37;;;;;;;4.33;3.90;;;24.60;80.80;;;;;;5013888;28;20936;-46
2023/08/25 08:35:07;;;;;;;6.20;4.17;;;24.80;80.20;;;;;;5013632;28;20428;-48
2023/08/25 08:37:33;;;;;;;8.00;4.20;;;24.90;80.80;;;;;;5014254;28;20433;-47
2023/08/25 08:39:58;;;;;;;9.10;4.07;;;25.00;79.70;;;;;;5014562;28;20849;-46
2023/08/25 08:42:25;;;;;;;7.07;4.30;;;24.90;79.50;;;;;;5014027;28;20306;-49
2023/08/25 08:44:50;;;;;;;9.00;5.00;;;24.80;80.30;;;;;;5014568;28;20559;-46
2023/08/25 08:47:16;;;;;;;4.00;3.70;;;25.00;79.80;;;;;;5013979;28;20552;-47
2023/08/25 08:49:43;;;;;;;6.27;4.07;;;24.80;80.70;;;;;;5014312;28;20209;-50
2023/08/25 08:52:10;;;;;;;6.83;3.60;;;24.90;80.00;;;;;;5012076;28;20436;-47
2023/08/25 08:54:37;;;;;;;7.07;3.43;;;25.00;79.40;;;;;;5014270;28;20429;-47
2023/08/25 08:57:04;;;;;;;4.00;3.60;;;25.00;79.00;;;;;;5012866;28;20436;-49
2023/08/25 08:59:30;;;;;;;3.87;3.47;;;25.00;79.70;;;;;;5014114;28;20495;-51
2023/08/25 09:01:57;;;;;;;4.77;3.23;;;24.90;79.50;;;;;;5013536;28;20433;-50
2023/08/25 09:04:24;;;;;;;4.47;3.47;;;25.00;79.00;;;;;;5013852;28;20958;-45
2023/08/25 09:06:51;;;;;;;4.50;3.30;;;25.10;78.30;;;;;;5013687;28;20783;-48
2023/08/25 09:09:20;;;;;;;3.70;3.37;;;25.10;78.20;;;;;;5014070;28;20437;-47
2023/08/25 09:11:49;;;;;;;3.53;3.23;;;25.20;77.80;;;;;;5013384;28;20887;-50
2023/08/25 09:14:26;;;;;;;5.37;3.17;;;25.30;77.60;;;;;;5014338;28;20425;-47
2023/08/25 09:17:02;;;;;;;4.70;3.37;;;25.20;77.00;;;;;;5017433;28;20465;-47
2023/08/25 09:19:31;;;;;;;4.10;3.40;;;25.10;79.30;;;;;;5012372;28;20943;-46
2023/08/25 09:21:57;;;;;;;4.77;3.60;;;25.20;79.70;;;;;;5012944;28;20461;-47
2023/08/25 09:24:23;;;;;;;5.10;4.47;;;25.10;80.70;;;;;;5013962;28;20455;-47
2023/08/25 09:26:50;;;;;;;8.97;4.00;;;24.70;80.30;;;;;;5013313;28;20197;-46
2023/08/25 09:29:15;;;;;;;3.70;3.43;;;24.50;82.10;;;;;;5013703;28;20281;-46
2023/08/25 09:31:43;;;;;;;4.57;3.50;;;24.50;82.20;;;;;;5011518;28;20519;-48
2023/08/25 09:34:10;;;;;;;4.27;3.80;;;24.60;81.20;;;;;;5013713;28;20224;-45
2023/08/25 09:36:51;;;;;;;4.50;3.63;;;24.80;82.50;;;;;;5013070;28;20424;-45
2023/08/25 09:39:16;;;;;;;5.60;3.40;;;24.90;81.00;;;;;;5013416;28;20484;-45
2023/08/25 09:41:44;;;;;;;3.10;2.90;;;25.00;81.40;;;;;;5012852;28;20421;-47
2023/08/25 09:44:10;;;;;;;4.13;3.23;;;24.90;78.80;;;;;;5013532;28;20190;-45
2023/08/25 09:46:36;;;;;;;7.37;3.37;;;24.70;78.50;;;;;;5011209;28;20991;-49
2023/08/25 09:49:06;;;;;;;3.63;3.20;;;24.60;80.00;;;;;;5013466;28;20437;-46
2023/08/25 09:51:39;;;;;;;3.70;3.30;;;24.40;82.00;;;;;;5012898;28;20198;-45
2023/08/25 09:54:10;;;;;;;4.30;3.10;;;24.50;82.20;;;;;;5013410;28;20440;-46
2023/08/25 09:56:37;;;;;;;3.90;3.47;;;24.80;82.40;;;;;;5012607;28;20476;-46
2023/08/25 09:59:04;;;;;;;5.53;2.90;;;24.90;80.20;;;;;;5012969;28;20480;-47
2023/08/25 10:01:32;;;;;;;3.80;3.07;;;25.10;78.90;;;;;;5012827;28;20417;-48
2023/08/25 10:03:58;;;;;;;3.50;3.20;;;25.30;81.50;;;;;;5012381;28;20806;-45
2023/08/25 10:06:24;;;;;;;5.17;3.70;;;25.30;81.10;;;;;;5005340;28;20511;-45
2023/08/25 10:08:50;;;;;;;4.33;3.93;;;25.20;81.60;;;;;;5012513;28;20508;-45
2023/08/25 10:11:18;;;;;;;3.80;3.50;;;25.30;82.30;;;;;;5011986;28;20273;-46
2023/08/25 10:13:45;;;;;;;5.20;3.73;;;25.70;83.20;;;;;;5012110;28;20420;-45
2023/08/25 10:16:12;;;;;;;4.40;3.60;;;26.00;79.70;;;;;;5015668;28;20814;-45
2023/08/25 10:18:43;;;;;;;4.93;4.10;;;26.30;76.30;;;;;;5014857;28;20444;-45
2023/08/25 10:21:10;;;;;;;4.20;3.27;;;26.20;76.20;;;;;;5012479;28;20882;-46
2023/08/25 10:23:37;;;;;;;5.30;3.50;;;26.30;72.00;;;;;;5012834;28;20493;-45
2023/08/25 10:26:03;;;;;;;3.93;3.63;;;26.30;72.20;;;;;;5012502;28;20421;-45
2023/08/25 10:28:30;;;;;;;3.90;3.10;;;26.20;71.90;;;;;;5012855;28;20476;-46
2023/08/25 10:30:56;;;;;;;4.03;3.20;;;26.30;72.20;;;;;;5012700;28;20429;-45
2023/08/25 10:33:22;;;;;;;4.07;3.77;;;26.30;72.80;;;;;;5011853;28;20421;-46
2023/08/25 10:35:49;;;;;;;3.90;3.47;;;26.30;72.90;;;;;;5012849;28;20212;-45
2023/08/25 10:38:17;;;;;;;4.40;4.00;;;26.30;72.00;;;;;;5010604;28;20194;-46
2023/08/25 10:40:51;;;;;;;4.60;3.30;;;26.20;72.50;;;;;;5012358;28;21019;-45
2023/08/25 10:43:47;;;;;;;4.03;3.70;;;26.10;72.50;;;;;;5012141;28;20475;-46
2023/08/25 10:46:12;;;;;;;3.97;3.67;;;26.20;72.00;;;;;;5010638;28;20477;-45
2023/08/25 10:48:42;;;;;;;3.43;2.83;;;26.30;71.10;;;;;;5012715;28;20471;-51
2023/08/25 10:51:09;;;;;;;3.97;2.93;;;26.20;70.80;;;;;;5012410;28;20194;-46
2023/08/25 10:53:44;;;;;;;4.03;3.43;;;26.30;72.20;;;;;;5012581;28;20913;-46
2023/08/25 10:56:21;;;;;;;3.93;3.63;;;26.40;71.80;;;;;;5011879;28;20432;-46
2023/08/25 10:59:05;;;;;;;3.70;3.30;;;26.30;70.80;;;;;;5012414;28;20428;-45
2023/08/25 11:01:53;;;;;;;3.90;3.60;;;26.40;70.20;;;;;;5011866;28;20952;-46
2023/08/25 11:04:27;;;;;;;8.70;3.00;;;26.60;69.40;;;;;;5010998;28;20440;-51
2023/08/25 11:06:57;;;;;;;3.13;2.80;;;26.50;68.00;;;;;;5012010;28;20472;-52
2023/08/25 11:09:35;;;;;;;3.50;3.17;;;26.60;67.90;;;;;;5012605;28;20940;-45
2023/08/25 11:12:08;;;;;;;3.30;3.00;;;26.80;67.20;;;;;;5011803;28;20531;-45
2023/08/25 11:14:39;;;;;;;3.17;2.83;;;26.80;64.60;;;;;;5012188;28;20426;-45
2023/08/25 11:17:09;;;;;;;3.90;3.20;;;26.80;65.20;;;;;;5023134;28;20428;-46
2023/08/25 11:19:37;;;;;;;3.97;3.33;;;26.90;64.90;;;;;;5012540;28;20567;-44
2023/08/25 11:22:11;;;;;;;3.90;2.80;;;27.10;64.30;;;;;;5015966;28;20487;-46
2023/08/25 11:24:37;;;;;;;3.33;3.03;;;27.10;63.20;;;;;;5015962;28;20436;-45
2023/08/25 11:27:09;;;;;;;2.90;2.70;;;27.10;62.90;;;;;;5015477;28;20436;-45
2023/08/25 11:29:34;;;;;;;3.93;3.53;;;27.20;63.30;;;;;;5016113;28;20433;-46
2023/08/25 11:32:00;;;;;;;3.37;3.17;;;27.20;61.50;;;;;;5011342;28;21006;-45
2023/08/25 11:34:31;;;;;;;2.73;2.53;;;27.00;62.00;;;;;;5015873;28;20571;-46
2023/08/25 11:36:56;;;;;;;3.53;3.23;;;27.00;62.80;;;;;;5015344;28;20943;-45
2023/08/25 11:39:22;;;;;;;6.50;3.70;;;27.10;63.70;;;;;;5015811;28;20596;-47
2023/08/25 11:41:53;;;;;;;3.00;2.70;;;27.10;62.70;;;;;;5015262;28;20190;-47
2023/08/25 11:44:18;;;;;;;3.57;3.27;;;27.10;61.70;;;;;;5015883;28;20698;-45
2023/08/25 11:46:44;;;;;;;4.50;3.27;;;27.10;61.70;;;;;;5015226;28;20548;-45
2023/08/25 11:49:10;;;;;;;4.20;2.80;;;27.10;61.50;;;;;;5015778;28;20214;-46
2023/08/25 11:51:36;;;;;;;3.87;3.47;;;27.20;61.40;;;;;;5014925;28;20464;-48
2023/08/25 11:54:05;;;;;;;3.80;3.50;;;27.30;61.50;;;;;;5015569;28;20194;-45
2023/08/25 11:56:31;;;;;;;4.00;3.00;;;27.60;61.20;;;;;;5014820;28;20633;-46
2023/08/25 11:58:57;;;;;;;3.37;2.90;;;27.70;61.40;;;;;;5014066;28;20457;-45
2023/08/25 12:01:29;;;;;;;4.17;3.63;;;27.80;60.40;;;;;;5014953;28;20638;-46
2023/08/25 12:03:58;;;;;;;4.53;3.80;;;27.80;61.10;;;;;;5015147;28;20224;-46
2023/08/25 12:06:23;;;;;;;4.30;3.40;;;27.80;60.70;;;;;;5015017;28;20437;-45
2023/08/25 12:08:50;;;;;;;3.60;3.30;;;27.70;61.20;;;;;;5015598;28;20472;-45
2023/08/25 12:11:15;;;;;;;4.60;3.93;;;27.60;62.00;;;;;;5014570;28;20221;-48
2023/08/25 12:13:43;;;;;;;4.10;3.60;;;27.60;62.20;;;;;;5015137;28;20548;-47
2023/08/25 12:16:12;;;;;;;5.13;3.83;;;27.70;62.30;;;;;;5018410;28;20193;-45
2023/08/25 12:18:39;;;;;;;3.83;3.53;;;27.80;62.10;;;;;;5016315;28;20433;-45
2023/08/25 12:21:06;;;;;;;3.30;3.10;;;27.80;61.80;;;;;;5014635;28;20485;-46
2023/08/25 12:23:39;;;;;;;4.47;3.90;;;27.80;61.80;;;;;;5014828;28;20536;-50
2023/08/25 12:26:07;;;;;;;4.47;3.37;;;27.80;61.20;;;;;;5013764;28;21006;-47
2023/08/25 12:28:33;;;;;;;3.60;3.30;;;27.70;61.50;;;;;;5014687;28;20422;-48
2023/08/25 12:31:00;;;;;;;4.67;4.27;;;27.80;61.70;;;;;;5014563;28;20425;-47
2023/08/25 12:33:26;;;;;;;3.93;3.63;;;28.00;61.50;;;;;;5002182;28;20197;-46
2023/08/25 12:35:52;;;;;;;4.90;3.60;;;27.90;60.10;;;;;;5014926;28;20495;-45
2023/08/25 12:38:17;;;;;;;4.10;3.80;;;27.90;61.00;;;;;;5014046;28;20428;-46
2023/08/25 12:40:43;;;;;;;3.70;3.30;;;28.00;60.00;;;;;;5014765;28;20256;-45
2023/08/25 12:43:09;;;;;;;4.43;4.03;;;27.80;59.80;;;;;;5014045;28;20213;-46
2023/08/25 12:45:34;;;;;;;5.00;4.00;;;27.70;59.20;;;;;;5014481;28;20282;-45